SCJO

Cañal Bajo Carlos - Hott Siebert Airport

Osorno, Chile
METAR SCJO 092100Z 33011KT 9999 BKN040 19/09 Q1015
Observed Flight Rules
Dec-9 @ 21:00 UTC (3 hours ago) Visual Flight Rules
Wind Visibility Clouds
330° at 11 knots 10,000+ meters
  • Broken at 4,000' AGL
Temperatures Readings
Current 19°C / 66°F
Dewpoint 9°C / 48°F
Humidity 52%
Altimeter 29.97" Hg
Pressure 1015 hPa
Elevation 65
METAR SCJO 092100Z 33011KT 9999 BKN040 19/09 Q1015
Observed Flight Rules
Dec-9 @ 21:00 UTC
(3 hours ago)
VFR
Wind Visibility
330° at 11 knots 10,000+ meters
Clouds
  • Broken at 4,000' AGL
Temperature Dewpoint
19°C / 66°F 9°C / 48°F
Humidity Altimeter Pressure
52% 29.97" Hg 1015 hPa